createdAt,value
2018-03-14T00:01:24.997Z,19.38
2018-03-14T00:07:26.478Z,16.7
2018-03-14T00:11:27.314Z,19.75
2018-03-14T00:17:28.455Z,18.04
2018-03-14T00:21:29.827Z,17.53
2018-03-14T00:27:30.599Z,19
2018-03-14T00:33:31.526Z,16.56
2018-03-14T00:37:32.209Z,17.01
2018-03-14T00:43:33.002Z,23.67
2018-03-14T00:47:33.884Z,18.33
2018-03-14T00:53:37.626Z,16.81
2018-03-14T00:59:41.048Z,18.91
2018-03-14T01:03:44.857Z,18.76
2018-03-14T01:09:48.618Z,20.77
2018-03-14T01:13:52.243Z,19.16
2018-03-14T01:19:56.123Z,20.05
2018-03-14T01:23:59.963Z,18.71
2018-03-14T01:30:00.629Z,18.26
2018-03-14T01:36:04.332Z,16.63
2018-03-14T01:40:08.242Z,17.59
2018-03-14T01:46:12.100Z,21.47
2018-03-14T01:50:15.953Z,16.7
2018-03-14T01:56:19.648Z,19.94
2018-03-14T02:00:23.821Z,19.81
2018-03-14T02:02:27.563Z,15.45
2018-03-14T02:06:31.462Z,16.55
2018-03-14T02:12:35.308Z,18.4
2018-03-14T02:16:39.224Z,16.83
2018-03-14T02:22:42.933Z,16.6
2018-03-14T02:26:46.713Z,18.44
2018-03-14T02:32:50.654Z,16.43
2018-03-14T02:36:54.397Z,17.09
2018-03-14T02:38:58.256Z,19.54
2018-03-14T02:43:00.159Z,16.29
2018-03-14T02:49:03.691Z,18.55
2018-03-14T02:53:07.616Z,16.45
2018-03-14T02:59:11.412Z,18.89
2018-03-14T03:03:15.352Z,18.86
2018-03-14T03:09:18.859Z,14.28
2018-03-14T03:13:22.546Z,16.2
2018-03-14T03:15:26.183Z,18.96
2018-03-14T03:19:30.504Z,17.59
2018-03-14T03:25:33.949Z,18.32
2018-03-14T03:29:34.785Z,16.69
2018-03-14T03:35:38.686Z,16.48
2018-03-14T03:39:39.539Z,18.38
2018-03-14T03:45:43.346Z,17.96
2018-03-14T03:51:47.047Z,24.9
2018-03-14T03:55:50.925Z,21.99
2018-03-14T04:01:54.816Z,17.14
2018-03-14T04:05:58.152Z,20.71
2018-03-14T04:12:01.844Z,24.88
2018-03-14T04:16:05.791Z,22.19
2018-03-14T04:22:09.488Z,23.87
2018-03-14T04:28:13.362Z,17.51
2018-03-14T04:32:16.880Z,20.91
2018-03-14T04:38:20.694Z,22.24
2018-03-14T04:42:24.481Z,19.3
2018-03-14T04:48:28.382Z,25.44
2018-03-14T04:52:32.030Z,22.39
2018-03-14T04:54:35.687Z,22.06
2018-03-14T04:58:39.225Z,19.75
2018-03-14T05:04:42.951Z,24.35
2018-03-14T05:08:46.384Z,24.92
2018-03-14T05:14:50.094Z,14.67
2018-03-14T05:18:53.785Z,13.12
2018-03-14T05:24:54.611Z,17.63
2018-03-14T05:28:55.292Z,21.31
2018-03-14T05:30:56.215Z,19.01
2018-03-14T05:34:56.898Z,14.61
2018-03-14T05:40:57.721Z,18.28
2018-03-14T05:44:58.506Z,17.78
2018-03-14T05:50:59.214Z,25.42
2018-03-14T05:55:00.001Z,23.52
2018-03-14T05:57:00.696Z,18.83
2018-03-14T06:01:01.593Z,22.48
2018-03-14T06:07:02.348Z,18.49
2018-03-14T06:11:03.226Z,14.81
2018-03-14T06:17:03.948Z,17.81
2018-03-14T06:21:04.629Z,15.77
2018-03-14T06:23:05.693Z,14.09
2018-03-14T06:27:06.972Z,16.81
2018-03-14T06:33:07.673Z,14.36
2018-03-14T06:37:08.590Z,13.88
2018-03-14T06:43:09.296Z,20.15
2018-03-14T06:47:10.143Z,18.18
2018-03-14T06:49:10.908Z,19.83
2018-03-14T06:53:11.818Z,14.81
2018-03-14T06:59:12.501Z,14.38
2018-03-14T07:03:13.308Z,16.79
2018-03-14T07:09:14.334Z,23.11
2018-03-14T07:13:15.063Z,25.24
2018-03-14T07:15:16.363Z,24.37
2018-03-14T07:19:17.272Z,21.86
2018-03-14T07:25:18.187Z,28.65
2018-03-14T07:29:18.999Z,26.9
2018-03-14T07:35:19.807Z,22.52
2018-03-14T07:39:20.778Z,20.83
2018-03-14T07:41:21.592Z,19.49
2018-03-14T07:45:22.693Z,18.37
2018-03-14T07:51:23.519Z,32.42
2018-03-14T07:55:24.341Z,35.37
2018-03-14T08:01:25.230Z,22.86
2018-03-14T08:05:26.064Z,23.1
2018-03-14T08:07:26.800Z,23.35
2018-03-14T08:11:27.462Z,24.68
2018-03-14T08:17:28.245Z,21.43
2018-03-14T08:21:29.010Z,20.32
2018-03-14T08:27:29.806Z,22.19
2018-03-14T08:31:30.656Z,21.03
2018-03-14T08:33:31.310Z,24.02
2018-03-14T08:37:32.192Z,22.78
2018-03-14T08:43:33.007Z,21.97
2018-03-14T08:47:33.790Z,23.14
2018-03-14T08:53:34.660Z,21.75
2018-03-14T08:57:35.493Z,23.74
2018-03-14T08:59:36.144Z,21.7
2018-03-14T09:03:37.127Z,25.54
2018-03-14T09:09:37.874Z,24.91
2018-03-14T09:13:38.673Z,25.29
2018-03-14T09:19:39.542Z,22.63
2018-03-14T09:23:40.397Z,16.98
2018-03-14T09:25:41.035Z,23.77
2018-03-14T09:29:42.128Z,21.92
2018-03-14T09:35:42.889Z,20.84
2018-03-14T09:39:43.759Z,18.31
2018-03-14T09:45:44.493Z,17.8
2018-03-14T09:49:45.220Z,20.76
2018-03-14T09:51:46.162Z,20.62
2018-03-14T09:55:46.865Z,19.22
2018-03-14T10:01:47.696Z,19.44
2018-03-14T10:05:48.461Z,14.66
2018-03-14T10:11:49.392Z,19.94
2018-03-14T10:15:50.044Z,17.24
2018-03-14T10:17:50.817Z,16.7
2018-03-14T10:21:52.697Z,17.32
2018-03-14T10:27:53.486Z,16.22
2018-03-14T10:31:54.253Z,17.99
2018-03-14T10:37:54.966Z,17.5
2018-03-14T10:41:55.756Z,17.76
2018-03-14T10:43:56.539Z,16.06
2018-03-14T10:47:57.241Z,13.75
2018-03-14T10:53:57.947Z,14.63
2018-03-14T10:57:58.713Z,12.42
2018-03-14T11:03:59.698Z,15.18
2018-03-14T11:08:00.347Z,19.1
2018-03-14T11:10:01.099Z,15.64
2018-03-14T11:14:02.079Z,13.9
2018-03-14T11:20:03.000Z,14.62
2018-03-14T11:24:03.732Z,12.05
2018-03-14T11:30:04.553Z,12.19
2018-03-14T11:34:05.304Z,13.39
2018-03-14T11:36:05.979Z,13
2018-03-14T11:40:06.717Z,10.88
2018-03-14T11:46:07.574Z,13.95
2018-03-14T11:50:08.367Z,12.24
2018-03-14T11:56:09.126Z,10.38
2018-03-14T12:00:10.212Z,10.16
2018-03-14T12:02:10.929Z,11.67
2018-03-14T12:06:11.664Z,11.67
2018-03-14T12:12:12.501Z,10.42
2018-03-14T12:16:13.362Z,9.31
2018-03-14T12:22:14.029Z,9.52
2018-03-14T12:26:14.829Z,13.1
2018-03-14T12:28:15.504Z,10.76
2018-03-14T12:32:16.400Z,7.91
2018-03-14T12:38:17.146Z,9.11
2018-03-14T12:42:18.012Z,9.77
2018-03-14T12:48:18.784Z,8.27
2018-03-14T12:52:19.597Z,8.29
2018-03-14T12:54:20.385Z,12.65
2018-03-14T12:58:21.278Z,8.45
2018-03-14T13:04:22.068Z,7.68
2018-03-14T13:08:22.836Z,8.63
2018-03-14T13:14:23.565Z,9.08
2018-03-14T13:18:24.385Z,9.64
2018-03-14T13:20:25.309Z,8.47
2018-03-14T13:24:26.020Z,8.7
2018-03-14T13:30:27.208Z,7.74
2018-03-14T13:34:28.074Z,6.99
2018-03-14T13:40:28.855Z,11.04
2018-03-14T13:44:29.577Z,8.54
2018-03-14T13:46:30.331Z,6.45
2018-03-14T13:50:31.110Z,6.79
2018-03-14T13:56:32.041Z,7.51
2018-03-14T14:00:33.134Z,8.13
2018-03-14T14:06:34.049Z,6.74
2018-03-14T14:10:34.857Z,8.94
2018-03-14T14:12:41.150Z,5.71
2018-03-14T14:16:41.869Z,6.94
2018-03-14T14:22:42.706Z,7.56
2018-03-14T14:26:43.447Z,7.15
2018-03-14T14:32:44.301Z,6.31
2018-03-14T14:36:45.172Z,5.33
2018-03-14T14:38:46.161Z,5.78
2018-03-14T14:42:47.013Z,8.44
2018-03-14T14:48:47.961Z,6.82
2018-03-14T14:52:48.697Z,5.62
2018-03-14T14:58:49.555Z,6.22
2018-03-14T15:02:50.503Z,6.86
2018-03-14T15:04:51.263Z,7.03
2018-03-14T15:08:52.316Z,7.36
2018-03-14T15:14:53.185Z,5.89
2018-03-14T15:18:53.976Z,5.72
2018-03-14T15:24:55.098Z,8.92
2018-03-14T15:28:55.834Z,7.23
2018-03-14T15:30:56.649Z,7.94
2018-03-14T15:34:57.457Z,6.96
2018-03-14T15:40:58.259Z,6.25
2018-03-14T15:44:58.963Z,8.23
2018-03-14T15:50:59.940Z,9.14
2018-03-14T15:55:00.874Z,6.73
2018-03-14T15:57:01.665Z,7.31
2018-03-14T16:01:02.543Z,7.13
2018-03-14T16:07:03.419Z,8.76
2018-03-14T16:11:04.189Z,9.22
2018-03-14T16:17:05.094Z,6.19
2018-03-14T16:21:05.705Z,7.28
2018-03-14T16:23:06.385Z,8.47
2018-03-14T16:27:07.233Z,7.4
2018-03-14T16:33:07.998Z,8.73
2018-03-14T16:37:08.793Z,6.37
2018-03-14T16:43:09.554Z,10.09
2018-03-14T16:47:10.448Z,10.11
2018-03-14T16:49:11.171Z,8.56
2018-03-14T16:53:11.920Z,8.33
2018-03-14T16:59:12.658Z,11.11
2018-03-14T17:03:13.488Z,6.67
2018-03-14T17:09:14.261Z,9.4
2018-03-14T17:13:15.214Z,8.4
2018-03-14T17:15:16.335Z,7.04
2018-03-14T17:19:17.081Z,5.51
2018-03-14T17:25:18.676Z,10.56
2018-03-14T17:29:19.686Z,9.55
2018-03-14T17:35:20.450Z,9.28
2018-03-14T17:39:21.363Z,11.94
2018-03-14T17:41:22.100Z,5.44
2018-03-14T17:45:23.295Z,7.46
2018-03-14T17:51:24.043Z,7.79
2018-03-14T17:55:24.829Z,8.22
2018-03-14T18:01:25.581Z,11.01
2018-03-14T18:05:26.363Z,12.58
2018-03-14T18:07:27.038Z,11.84
2018-03-14T18:11:27.791Z,11.53
2018-03-14T18:17:28.501Z,12.11
2018-03-14T18:21:29.263Z,16.49
2018-03-14T18:27:30.068Z,14.91
2018-03-14T18:31:30.800Z,11.84
2018-03-14T18:33:31.573Z,11.35
2018-03-14T18:37:32.215Z,11.8
2018-03-14T18:43:33.024Z,15.46
2018-03-14T18:47:33.837Z,17.68
2018-03-14T18:53:34.727Z,13.27
2018-03-14T18:57:35.581Z,15.22
2018-03-14T18:59:36.402Z,17.72
2018-03-14T19:03:37.272Z,16.17
2018-03-14T19:09:38.097Z,24.42
2018-03-14T19:13:38.810Z,24.07
2018-03-14T19:19:39.612Z,21.67
2018-03-14T19:23:40.326Z,22.76
2018-03-14T19:25:41.088Z,23.86
2018-03-14T19:29:41.808Z,22.5
2018-03-14T19:35:42.731Z,29.16
2018-03-14T19:39:43.444Z,23.46
2018-03-14T19:45:44.469Z,24.15
2018-03-14T19:49:45.354Z,18.91
2018-03-14T19:51:46.182Z,21
2018-03-14T19:55:46.931Z,20.93
2018-03-14T20:01:47.723Z,23.31
2018-03-14T20:05:48.522Z,21.8
2018-03-14T20:11:49.328Z,21.74
2018-03-14T20:15:50.081Z,21.9
2018-03-14T20:17:50.975Z,26.77
2018-03-14T20:21:51.647Z,24.88
2018-03-14T20:27:52.428Z,22.52
2018-03-14T20:31:53.315Z,23.13
2018-03-14T20:37:53.999Z,19.81
2018-03-14T20:41:54.832Z,16.13
2018-03-14T20:43:55.555Z,14.04
2018-03-14T20:47:56.275Z,12.01
2018-03-14T20:53:57.225Z,18.48
2018-03-14T20:57:58.064Z,14.6
2018-03-14T21:03:58.924Z,15.57
2018-03-14T21:07:59.677Z,16.27
2018-03-14T21:10:00.517Z,17.95
2018-03-14T21:14:01.308Z,21.34
2018-03-14T21:20:02.195Z,14.92
2018-03-14T21:24:02.978Z,17.33
2018-03-14T21:30:03.738Z,15.77
2018-03-14T21:34:04.522Z,14.73
2018-03-14T21:36:05.178Z,19.1
2018-03-14T21:40:05.868Z,17.16
2018-03-14T21:46:06.677Z,19.47
2018-03-14T21:50:07.381Z,16.53
2018-03-14T21:56:08.292Z,13.85
2018-03-14T22:00:09.221Z,16.27
2018-03-14T22:02:10.009Z,15.76
2018-03-14T22:06:10.714Z,18.69
2018-03-14T22:12:11.337Z,17.19
2018-03-14T22:16:12.044Z,16.27
2018-03-14T22:22:12.821Z,17.42
2018-03-14T22:26:13.604Z,15.91
2018-03-14T22:28:14.374Z,14.29
2018-03-14T22:32:15.142Z,15.76
2018-03-14T22:38:15.915Z,14.63
2018-03-14T22:42:16.587Z,15.24
2018-03-14T22:48:17.357Z,14.04
2018-03-14T22:52:18.040Z,13.88
2018-03-14T22:54:18.763Z,12.37
2018-03-14T22:58:19.656Z,11.02
2018-03-14T23:04:20.601Z,15.27
2018-03-14T23:08:21.467Z,11.92
2018-03-14T23:14:22.239Z,14.2
2018-03-14T23:18:22.990Z,13.75
2018-03-14T23:20:23.802Z,14.23
2018-03-14T23:24:24.510Z,13.18
2018-03-14T23:30:26.020Z,14.53
2018-03-14T23:34:26.916Z,12.75
2018-03-14T23:40:27.624Z,11.87
2018-03-14T23:44:28.533Z,12.23
2018-03-14T23:46:29.305Z,14.07
2018-03-14T23:50:30.346Z,11.68
2018-03-14T23:56:31.195Z,14.2
